Terminal Aerodrome Forecast
Issued by NWS Cleveland, OH

Home | Current Version | Previous Version | Text Only | Print | Product List | Glossary On
Versions: 1 2 3 4 5 6 7 8 9 10 11 12 13
000
FTUS41 KCLE 291125
TAFMFD
TAF
KMFD 291125Z 2912/3012 20012KT P6SM FEW120 BKN250
     FM291400 22015G25KT P6SM SCT045 BKN200
     FM300000 21012KT P6SM SCT045 BKN100
     FM300800 20009KT 5SM BR VCSH SCT022 BKN100=

USA.gov is the U.S. government's official web portal to all federal, state and local government web resources and services.